createdAt,value
2019-03-26T00:01:25.285Z,79.55
2019-03-26T00:03:30.740Z,79.51
2019-03-26T00:05:36.245Z,79.42
2019-03-26T00:07:40.672Z,79.37
2019-03-26T00:09:45.006Z,79.39
2019-03-26T00:11:49.345Z,79.37
2019-03-26T00:13:53.674Z,79.46
2019-03-26T00:15:58.133Z,79.37
2019-03-26T00:18:03.583Z,79.31
2019-03-26T00:20:08.111Z,79.28
2019-03-26T00:22:12.452Z,79.10
2019-03-26T00:24:16.769Z,78.94
2019-03-26T00:26:21.071Z,78.90
2019-03-26T00:28:26.588Z,78.92
2019-03-26T00:30:31.016Z,78.94
2019-03-26T00:32:35.413Z,78.90
2019-03-26T00:34:40.818Z,78.94
2019-03-26T00:36:45.196Z,79.00
2019-03-26T00:38:49.650Z,78.93
2019-03-26T00:40:54.036Z,78.95
2019-03-26T00:42:58.467Z,78.97
2019-03-26T00:45:02.832Z,78.96
2019-03-26T00:47:07.316Z,78.88
2019-03-26T00:49:12.712Z,78.75
2019-03-26T00:51:17.051Z,78.81
2019-03-26T00:53:21.430Z,78.97
2019-03-26T00:55:25.826Z,79.10
2019-03-26T00:57:30.181Z,79.14
2019-03-26T00:59:34.514Z,79.12
2019-03-26T01:01:38.901Z,79.07
2019-03-26T01:03:43.370Z,79.15
2019-03-26T01:05:47.755Z,79.18
2019-03-26T01:07:53.194Z,79.20
2019-03-26T01:09:57.521Z,79.18
2019-03-26T01:12:01.879Z,79.26
2019-03-26T01:14:08.299Z,79.27
2019-03-26T01:16:12.643Z,79.17
2019-03-26T01:18:18.039Z,79.26
2019-03-26T01:20:22.446Z,79.44
2019-03-26T01:22:26.869Z,79.55
2019-03-26T01:24:31.217Z,79.71
2019-03-26T01:26:35.608Z,79.93
2019-03-26T01:28:39.945Z,80.03
2019-03-26T01:30:45.346Z,80.10
2019-03-26T01:32:49.755Z,80.09
2019-03-26T01:34:54.102Z,80.13
2019-03-26T01:36:59.556Z,80.16
2019-03-26T01:39:05.185Z,80.17
2019-03-26T01:41:09.529Z,80.12
2019-03-26T01:43:13.949Z,80.11
2019-03-26T01:45:20.394Z,80.08
2019-03-26T01:47:25.821Z,80.05
2019-03-26T01:49:30.198Z,79.94
2019-03-26T01:51:34.482Z,79.96
2019-03-26T01:53:39.804Z,80.00
2019-03-26T01:55:44.098Z,80.02
2019-03-26T01:57:48.589Z,80.05
2019-03-26T01:59:53.035Z,80.05
2019-03-26T02:01:57.388Z,80.00
2019-03-26T02:04:01.722Z,80.00
2019-03-26T02:06:11.985Z,79.97
2019-03-26T02:08:16.381Z,79.90
2019-03-26T02:10:21.774Z,79.85
2019-03-26T02:12:26.185Z,79.81
2019-03-26T02:14:30.707Z,79.87
2019-03-26T02:16:35.144Z,79.97
2019-03-26T02:18:39.479Z,79.89
2019-03-26T02:20:43.812Z,79.81
2019-03-26T02:22:48.110Z,79.80
2019-03-26T02:24:52.891Z,79.80
2019-03-26T02:26:57.357Z,79.89
2019-03-26T02:29:01.683Z,79.96
2019-03-26T02:31:06.010Z,80.02
2019-03-26T02:33:10.298Z,80.02
2019-03-26T02:35:18.101Z,79.98
2019-03-26T02:37:20.689Z,79.85
2019-03-26T02:39:25.023Z,79.78
2019-03-26T02:41:30.235Z,79.72
2019-03-26T02:43:34.576Z,79.67
2019-03-26T02:45:41.966Z,79.63
2019-03-26T02:47:46.403Z,79.81
2019-03-26T02:49:50.793Z,79.96
2019-03-26T02:51:55.287Z,80.17
2019-03-26T02:53:59.629Z,80.32
2019-03-26T02:56:03.919Z,80.45
2019-03-26T02:58:08.372Z,80.54
2019-03-26T03:00:13.256Z,80.58
2019-03-26T03:02:17.570Z,80.62
2019-03-26T03:04:21.930Z,80.70
2019-03-26T03:06:26.459Z,80.74
2019-03-26T03:08:31.761Z,80.77
2019-03-26T03:10:37.224Z,80.75
2019-03-26T03:12:42.510Z,80.68
2019-03-26T03:14:47.894Z,80.54
2019-03-26T03:16:54.260Z,80.42
2019-03-26T03:18:58.692Z,80.55
2019-03-26T03:21:03.248Z,80.64
2019-03-26T03:23:07.609Z,80.71
2019-03-26T03:25:13.158Z,80.75
2019-03-26T03:27:18.496Z,80.84
2019-03-26T03:29:24.820Z,80.88
2019-03-26T03:31:29.212Z,80.92
2019-03-26T03:33:33.560Z,80.92
2019-03-26T03:35:51.410Z,80.89
2019-03-26T03:37:44.086Z,80.91
2019-03-26T03:39:48.515Z,80.90
2019-03-26T03:41:52.890Z,80.90
2019-03-26T03:43:57.207Z,80.93
2019-03-26T03:46:01.782Z,80.98
2019-03-26T03:48:07.508Z,80.99
2019-03-26T03:50:12.426Z,80.88
2019-03-26T03:52:17.806Z,80.85
2019-03-26T03:54:23.664Z,80.82
2019-03-26T03:56:29.690Z,80.87
2019-03-26T03:58:36.333Z,80.90
2019-03-26T04:00:41.262Z,80.84
2019-03-26T04:02:45.681Z,80.79
2019-03-26T04:04:49.993Z,80.72
2019-03-26T04:06:54.470Z,80.76
2019-03-26T04:08:58.809Z,80.79
2019-03-26T04:11:04.487Z,80.78
2019-03-26T04:13:09.010Z,80.78
2019-03-26T04:15:13.465Z,80.80
2019-03-26T04:17:17.839Z,80.73
2019-03-26T04:19:22.212Z,80.67
2019-03-26T04:21:26.568Z,80.63
2019-03-26T04:23:30.928Z,80.64
2019-03-26T04:25:35.424Z,80.75
2019-03-26T04:27:39.784Z,80.87
2019-03-26T04:29:44.080Z,80.88
2019-03-26T04:31:48.438Z,80.94
2019-03-26T04:33:52.987Z,80.96
2019-03-26T04:35:57.368Z,81.03
2019-03-26T04:38:01.755Z,81.08
2019-03-26T04:40:06.195Z,81.11
2019-03-26T04:42:10.575Z,81.18
2019-03-26T04:44:14.922Z,81.20
2019-03-26T04:46:19.230Z,81.16
2019-03-26T04:48:23.540Z,81.12
2019-03-26T04:50:27.841Z,81.06
2019-03-26T04:52:33.250Z,81.12
2019-03-26T04:54:37.591Z,81.17
2019-03-26T04:56:41.927Z,81.13
2019-03-26T04:58:46.263Z,81.07
2019-03-26T05:00:51.573Z,81.01
2019-03-26T05:02:55.903Z,81.01
2019-03-26T05:05:00.306Z,81.03
2019-03-26T05:07:05.939Z,81.08
2019-03-26T05:09:11.311Z,81.12
2019-03-26T05:11:15.685Z,81.11
2019-03-26T05:13:20.045Z,81.15
2019-03-26T05:15:26.406Z,81.18
2019-03-26T05:17:30.802Z,81.18
2019-03-26T05:19:35.104Z,81.18
2019-03-26T05:21:40.536Z,81.13
2019-03-26T05:23:44.890Z,81.18
2019-03-26T05:25:49.222Z,81.21
2019-03-26T05:27:57.988Z,81.30
2019-03-26T05:30:03.656Z,81.26
2019-03-26T05:32:08.049Z,81.28
2019-03-26T05:34:12.391Z,81.29
2019-03-26T05:36:16.713Z,81.27
2019-03-26T05:38:22.047Z,81.21
2019-03-26T05:40:26.350Z,81.20
2019-03-26T05:42:30.700Z,81.15
2019-03-26T05:44:36.017Z,81.20
2019-03-26T05:46:40.307Z,81.32
2019-03-26T05:48:44.649Z,81.42
2019-03-26T05:50:51.004Z,81.41
2019-03-26T05:52:55.391Z,81.47
2019-03-26T05:54:59.744Z,81.54
2019-03-26T05:57:04.237Z,81.56
2019-03-26T05:59:08.560Z,81.51
2019-03-26T06:01:12.883Z,81.53
2019-03-26T06:03:17.235Z,81.62
2019-03-26T06:05:21.833Z,81.62
2019-03-26T06:07:27.144Z,81.58
2019-03-26T06:09:31.561Z,81.59
2019-03-26T06:11:35.912Z,81.60
2019-03-26T06:13:40.216Z,81.59
2019-03-26T06:15:44.583Z,81.53
2019-03-26T06:17:49.024Z,81.51
2019-03-26T06:19:53.379Z,81.53
2019-03-26T06:21:57.688Z,81.50
2019-03-26T06:24:02.117Z,81.46
2019-03-26T06:26:06.524Z,81.44
2019-03-26T06:28:10.820Z,81.36
2019-03-26T06:30:15.676Z,81.25
2019-03-26T06:32:20.006Z,81.10
2019-03-26T06:34:24.407Z,80.89
2019-03-26T06:36:28.851Z,80.60
2019-03-26T06:38:33.228Z,80.32
2019-03-26T06:40:38.550Z,80.14
2019-03-26T06:42:43.126Z,80.04
2019-03-26T06:44:47.567Z,80.01
2019-03-26T06:46:51.941Z,79.94
2019-03-26T06:48:56.247Z,79.94
2019-03-26T06:51:00.637Z,79.94
2019-03-26T06:53:04.950Z,79.85
2019-03-26T06:55:09.720Z,79.72
2019-03-26T06:57:14.213Z,79.61
2019-03-26T06:59:18.514Z,79.55
2019-03-26T07:01:22.951Z,79.36
2019-03-26T07:03:27.406Z,79.19
2019-03-26T07:05:31.833Z,79.01
2019-03-26T07:07:36.302Z,78.85
2019-03-26T07:09:42.906Z,78.71
2019-03-26T07:11:47.280Z,78.50
2019-03-26T07:13:51.593Z,78.14
2019-03-26T07:15:55.968Z,77.95
2019-03-26T07:18:00.346Z,77.74
2019-03-26T07:20:05.151Z,77.55
2019-03-26T07:22:10.532Z,77.34
2019-03-26T07:24:15.087Z,77.01
2019-03-26T07:26:19.585Z,75.96
2019-03-26T07:28:24.007Z,75.36
2019-03-26T07:30:47.090Z,75.24
2019-03-26T07:32:51.409Z,75.19
2019-03-26T07:34:55.737Z,75.13
2019-03-26T07:37:00.054Z,75.18
2019-03-26T07:39:06.999Z,75.21
2019-03-26T07:41:12.455Z,74.99
2019-03-26T07:43:16.765Z,74.99
2019-03-26T07:45:21.183Z,75.14
2019-03-26T07:47:25.502Z,75.02
2019-03-26T07:49:29.822Z,74.99
2019-03-26T07:51:35.191Z,75.11
2019-03-26T07:53:39.488Z,75.23
2019-03-26T07:55:44.173Z,75.26
2019-03-26T07:57:48.407Z,75.29
2019-03-26T07:59:52.721Z,75.09
2019-03-26T08:01:58.162Z,74.84
2019-03-26T08:04:02.569Z,74.52
2019-03-26T08:06:06.915Z,74.12
2019-03-26T08:08:11.297Z,73.82
2019-03-26T08:10:15.728Z,73.46
2019-03-26T08:12:20.154Z,72.34
2019-03-26T08:14:24.496Z,71.38
2019-03-26T08:16:28.818Z,70.01
2019-03-26T08:18:34.157Z,68.76
2019-03-26T08:20:38.438Z,67.03
2019-03-26T08:22:44.942Z,65.77
2019-03-26T08:24:51.386Z,65.16
2019-03-26T08:26:56.713Z,62.78
2019-03-26T08:29:01.174Z,61.89
2019-03-26T08:31:06.546Z,58.67
2019-03-26T08:33:10.880Z,55.55
2019-03-26T08:35:15.546Z,53.91
2019-03-26T08:37:19.927Z,51.45
2019-03-26T08:39:24.234Z,48.84
2019-03-26T08:41:28.570Z,45.46
2019-03-26T08:43:32.871Z,45.58
2019-03-26T08:45:37.181Z,46.69
2019-03-26T08:47:41.493Z,48.18
2019-03-26T08:49:46.833Z,49.60
2019-03-26T08:51:51.185Z,50.74
2019-03-26T08:53:57.541Z,51.15
2019-03-26T08:56:01.855Z,49.38
2019-03-26T08:58:06.223Z,48.48
2019-03-26T09:00:11.959Z,49.19
2019-03-26T09:02:16.353Z,48.99
2019-03-26T09:04:21.639Z,49.31
2019-03-26T09:06:26.115Z,50.20
2019-03-26T09:08:30.496Z,50.94
2019-03-26T09:10:34.794Z,50.35
2019-03-26T09:12:39.759Z,49.98
2019-03-26T09:14:44.281Z,49.62
2019-03-26T09:16:48.668Z,48.80
2019-03-26T09:18:53.108Z,48.91
2019-03-26T09:20:57.439Z,48.35
2019-03-26T09:23:01.723Z,47.97
2019-03-26T09:25:06.851Z,47.98
2019-03-26T09:27:11.184Z,47.98
2019-03-26T09:29:15.477Z,47.75
2019-03-26T09:31:19.789Z,47.24
2019-03-26T09:33:24.132Z,46.77
2019-03-26T09:35:30.463Z,46.64
2019-03-26T09:37:34.799Z,46.84
2019-03-26T09:39:40.119Z,46.71
2019-03-26T09:41:44.457Z,46.88
2019-03-26T09:43:49.840Z,46.83
2019-03-26T09:45:54.192Z,46.60
2019-03-26T09:47:58.518Z,46.71
2019-03-26T09:50:02.920Z,47.12
2019-03-26T09:52:07.256Z,46.78
2019-03-26T09:54:11.645Z,45.80
2019-03-26T09:56:27.908Z,43.76
2019-03-26T09:58:22.115Z,42.78
2019-03-26T10:00:26.421Z,42.93
2019-03-26T10:02:30.753Z,43.16
2019-03-26T10:04:35.141Z,42.67
2019-03-26T10:06:39.492Z,43.02
2019-03-26T10:08:52.187Z,43.29
2019-03-26T10:10:53.144Z,43.29
2019-03-26T10:12:57.459Z,43.25
2019-03-26T10:15:01.772Z,43.35
2019-03-26T10:17:08.225Z,43.15
2019-03-26T10:19:12.539Z,42.95
2019-03-26T10:21:16.957Z,43.13
2019-03-26T10:23:21.295Z,42.98
2019-03-26T10:25:25.683Z,42.86
2019-03-26T10:27:30.006Z,42.89
2019-03-26T10:29:34.329Z,42.95
2019-03-26T10:31:38.734Z,42.56
2019-03-26T10:33:43.089Z,42.43
2019-03-26T10:35:47.399Z,42.78
2019-03-26T10:37:51.699Z,43.13
2019-03-26T10:39:58.063Z,43.21
2019-03-26T10:42:02.411Z,43.12
2019-03-26T10:44:06.690Z,42.70
2019-03-26T10:46:11.056Z,42.66
2019-03-26T10:48:15.438Z,42.16
2019-03-26T10:50:19.726Z,41.64
2019-03-26T10:52:26.092Z,41.43
2019-03-26T10:54:31.442Z,41.87
2019-03-26T10:56:35.826Z,41.73
2019-03-26T10:58:41.283Z,41.77
2019-03-26T11:00:45.711Z,42.06
2019-03-26T11:02:50.041Z,42.21
2019-03-26T11:04:55.464Z,41.94
2019-03-26T11:06:59.795Z,42.71
2019-03-26T11:09:19.892Z,42.66
2019-03-26T11:11:13.726Z,42.89
2019-03-26T11:13:19.134Z,43.16
2019-03-26T11:15:23.406Z,43.72
2019-03-26T11:17:27.703Z,43.34
2019-03-26T11:19:32.010Z,43.39
2019-03-26T11:21:36.369Z,43.14
2019-03-26T11:23:41.667Z,42.96
2019-03-26T11:25:46.060Z,43.16
2019-03-26T11:27:50.409Z,42.97
2019-03-26T11:29:54.796Z,43.08
2019-03-26T11:32:00.214Z,42.73
2019-03-26T11:34:04.733Z,42.54
2019-03-26T11:36:09.129Z,42.49
2019-03-26T11:38:13.436Z,42.52
2019-03-26T11:40:18.921Z,42.40
2019-03-26T11:42:23.294Z,42.50
2019-03-26T11:44:27.593Z,42.52
2019-03-26T11:46:31.986Z,42.54
2019-03-26T11:48:37.389Z,42.81
2019-03-26T11:50:41.830Z,42.77
2019-03-26T11:52:46.269Z,42.95
2019-03-26T11:54:50.604Z,43.05
2019-03-26T11:56:54.992Z,43.40
2019-03-26T11:58:59.358Z,43.46
2019-03-26T12:01:04.289Z,43.53
2019-03-26T12:03:08.726Z,43.09
2019-03-26T12:05:13.450Z,42.82
2019-03-26T12:07:17.851Z,43.08
2019-03-26T12:09:22.341Z,42.95
2019-03-26T12:11:26.676Z,42.95
2019-03-26T12:13:33.020Z,43.07
2019-03-26T12:15:37.411Z,43.25
2019-03-26T12:17:41.762Z,43.36
2019-03-26T12:19:46.068Z,43.52
2019-03-26T12:21:51.654Z,43.53
2019-03-26T12:23:56.051Z,43.05
2019-03-26T12:26:00.344Z,42.87
2019-03-26T12:28:04.748Z,42.93
2019-03-26T12:30:11.235Z,43.15
2019-03-26T12:32:15.638Z,43.17
2019-03-26T12:34:20.036Z,43.31
2019-03-26T12:36:24.469Z,43.64
2019-03-26T12:38:28.792Z,44.05
2019-03-26T12:40:33.125Z,44.16
2019-03-26T12:42:37.445Z,44.30
2019-03-26T12:44:41.740Z,44.26
2019-03-26T12:46:46.050Z,44.15
2019-03-26T12:48:50.429Z,44.33
2019-03-26T12:50:54.858Z,44.05
2019-03-26T12:53:00.228Z,43.51
2019-03-26T12:55:05.693Z,43.41
2019-03-26T12:57:10.051Z,43.46
2019-03-26T12:59:14.448Z,43.28
2019-03-26T13:01:18.974Z,43.37
2019-03-26T13:03:23.259Z,43.48
2019-03-26T13:05:29.780Z,43.45
2019-03-26T13:07:34.119Z,43.75
2019-03-26T13:09:41.678Z,43.81
2019-03-26T13:11:44.612Z,43.85
2019-03-26T13:13:50.949Z,43.77
2019-03-26T13:15:55.279Z,43.56
2019-03-26T13:17:59.654Z,43.44
2019-03-26T13:20:04.385Z,43.62
2019-03-26T13:22:08.749Z,43.66
2019-03-26T13:24:13.187Z,43.63
2019-03-26T13:26:18.484Z,43.72
2019-03-26T13:28:22.811Z,42.52
2019-03-26T13:30:29.163Z,41.08
2019-03-26T13:32:33.477Z,40.58
2019-03-26T13:34:37.815Z,40.70
2019-03-26T13:36:43.204Z,40.25
2019-03-26T13:38:47.540Z,40.34
2019-03-26T13:40:51.912Z,40.67
2019-03-26T13:42:56.428Z,40.58
2019-03-26T13:45:00.880Z,41.00
2019-03-26T13:47:05.396Z,41.66
2019-03-26T13:49:09.889Z,41.92
2019-03-26T13:51:16.551Z,42.13
2019-03-26T13:53:22.674Z,41.45
2019-03-26T13:55:28.100Z,41.14
2019-03-26T13:57:32.564Z,41.31
2019-03-26T13:59:37.883Z,41.33
2019-03-26T14:01:42.271Z,40.98
2019-03-26T14:03:46.734Z,40.83
2019-03-26T14:05:51.150Z,40.69
2019-03-26T14:07:55.608Z,40.52
2019-03-26T14:09:59.952Z,40.74
2019-03-26T14:12:04.268Z,41.16
2019-03-26T14:14:09.767Z,41.19
2019-03-26T14:16:14.120Z,41.52
2019-03-26T14:18:18.463Z,41.97
2019-03-26T14:20:22.928Z,42.21
2019-03-26T14:22:27.344Z,42.24
2019-03-26T14:24:32.740Z,42.32
2019-03-26T14:26:39.102Z,42.54
2019-03-26T14:28:43.874Z,42.47
2019-03-26T14:30:48.386Z,42.16
2019-03-26T14:32:52.800Z,42.35
2019-03-26T14:34:57.230Z,42.57
2019-03-26T14:37:01.568Z,42.92
2019-03-26T14:39:09.227Z,43.03
2019-03-26T14:41:13.587Z,42.79
2019-03-26T14:43:17.962Z,42.79
2019-03-26T14:45:22.539Z,42.80
2019-03-26T14:47:26.925Z,42.65
2019-03-26T14:49:31.246Z,42.53
2019-03-26T14:51:35.566Z,42.35
2019-03-26T14:53:39.967Z,42.41
2019-03-26T14:55:44.299Z,42.10
2019-03-26T14:57:48.604Z,41.79
2019-03-26T14:59:52.945Z,41.85
2019-03-26T15:01:59.357Z,41.93
2019-03-26T15:04:03.822Z,42.13
2019-03-26T15:06:08.165Z,42.22
2019-03-26T15:08:12.549Z,42.35
2019-03-26T15:10:17.163Z,42.55
2019-03-26T15:12:21.558Z,41.88
2019-03-26T15:14:25.903Z,41.95
2019-03-26T15:16:30.224Z,41.99
2019-03-26T15:18:34.621Z,42.28
2019-03-26T15:20:38.944Z,42.22
2019-03-26T15:22:43.352Z,42.46
2019-03-26T15:24:47.751Z,42.64
2019-03-26T15:26:52.238Z,42.63
2019-03-26T15:29:02.361Z,41.69
2019-03-26T15:31:10.825Z,41.87
2019-03-26T15:33:15.125Z,41.95
2019-03-26T15:35:19.676Z,42.21
2019-03-26T15:37:24.099Z,42.48
2019-03-26T15:39:28.459Z,42.54
2019-03-26T15:41:32.748Z,42.68
2019-03-26T15:43:37.085Z,42.27
2019-03-26T15:45:41.464Z,41.95
2019-03-26T15:47:45.840Z,42.17
2019-03-26T15:49:50.305Z,42.06
2019-03-26T15:51:54.630Z,41.92
2019-03-26T15:53:58.981Z,41.96
2019-03-26T15:56:03.343Z,42.10
2019-03-26T15:58:07.832Z,42.15
2019-03-26T16:00:12.611Z,42.44
2019-03-26T16:02:16.947Z,42.52
2019-03-26T16:04:21.218Z,42.61
2019-03-26T16:06:25.566Z,42.67
2019-03-26T16:08:29.869Z,42.76
2019-03-26T16:10:36.408Z,42.72
2019-03-26T16:12:41.577Z,42.55
2019-03-26T16:14:46.991Z,42.73
2019-03-26T16:16:51.399Z,42.86
2019-03-26T16:18:55.810Z,42.88
2019-03-26T16:21:00.163Z,42.87
2019-03-26T16:23:07.701Z,42.84
2019-03-26T16:25:12.205Z,43.03
2019-03-26T16:27:16.621Z,43.12
2019-03-26T16:29:21.062Z,43.16
2019-03-26T16:31:25.410Z,43.15
2019-03-26T16:33:30.748Z,43.05
2019-03-26T16:35:35.142Z,43.22
2019-03-26T16:37:39.488Z,43.45
2019-03-26T16:39:43.809Z,43.54
2019-03-26T16:41:49.540Z,43.72
2019-03-26T16:43:53.978Z,43.88
2019-03-26T16:45:58.288Z,44.12
2019-03-26T16:48:02.685Z,44.35
2019-03-26T16:50:07.595Z,44.50
2019-03-26T16:52:12.045Z,44.54
2019-03-26T16:54:16.491Z,44.76
2019-03-26T16:56:21.053Z,44.85
2019-03-26T16:58:25.422Z,44.89
2019-03-26T17:00:34.956Z,44.97
2019-03-26T17:02:39.480Z,44.83
2019-03-26T17:04:47.018Z,44.78
2019-03-26T17:06:51.375Z,44.96
2019-03-26T17:08:55.676Z,45.08
2019-03-26T17:10:59.988Z,45.20
2019-03-26T17:13:05.630Z,45.27
2019-03-26T17:15:10.110Z,45.37
2019-03-26T17:17:14.492Z,45.53
2019-03-26T17:19:20.913Z,45.65
2019-03-26T17:21:25.259Z,45.73
2019-03-26T17:23:30.644Z,45.75
2019-03-26T17:25:35.916Z,45.85
2019-03-26T17:27:41.356Z,46.01
2019-03-26T17:29:45.715Z,45.99
2019-03-26T17:31:49.999Z,46.04
2019-03-26T17:33:55.345Z,46.16
2019-03-26T17:36:00.678Z,46.33
2019-03-26T17:38:05.094Z,46.57
2019-03-26T17:40:09.583Z,46.49
2019-03-26T17:42:17.492Z,46.54
2019-03-26T17:44:21.036Z,46.73
2019-03-26T17:46:27.386Z,46.89
2019-03-26T17:48:32.767Z,46.97
2019-03-26T17:50:37.143Z,47.09
2019-03-26T17:52:41.454Z,47.12
2019-03-26T17:54:45.827Z,47.27
2019-03-26T17:56:50.283Z,47.48
2019-03-26T17:58:54.610Z,47.62
2019-03-26T18:00:59.130Z,47.80
2019-03-26T18:03:03.545Z,48.12
2019-03-26T18:05:20.729Z,48.20
2019-03-26T18:07:25.127Z,48.28
2019-03-26T18:09:29.592Z,48.30
2019-03-26T18:11:34.001Z,48.49
2019-03-26T18:13:39.393Z,48.57
2019-03-26T18:15:43.775Z,48.74
2019-03-26T18:17:49.151Z,48.85
2019-03-26T18:19:53.504Z,48.99
2019-03-26T18:21:57.904Z,49.19
2019-03-26T18:24:02.359Z,49.26
2019-03-26T18:26:06.729Z,49.36
2019-03-26T18:28:11.075Z,49.47
2019-03-26T18:30:16.086Z,49.52
2019-03-26T18:32:20.467Z,49.64
2019-03-26T18:34:24.885Z,49.65
2019-03-26T18:36:29.201Z,49.66
2019-03-26T18:38:34.494Z,49.76
2019-03-26T18:40:40.912Z,49.93
2019-03-26T18:42:45.362Z,50.04
2019-03-26T18:44:49.725Z,50.18
2019-03-26T18:46:55.124Z,50.25
2019-03-26T18:48:59.454Z,50.32
2019-03-26T18:51:04.804Z,50.49
2019-03-26T18:53:09.199Z,50.58
2019-03-26T18:55:13.715Z,50.62
2019-03-26T18:57:18.060Z,50.66
2019-03-26T18:59:24.409Z,50.75
2019-03-26T19:01:28.770Z,50.86
2019-03-26T19:03:33.231Z,50.89
2019-03-26T19:05:37.726Z,50.94
2019-03-26T19:07:42.114Z,51.06
2019-03-26T19:09:46.457Z,51.19
2019-03-26T19:11:50.819Z,51.32
2019-03-26T19:13:55.134Z,51.42
2019-03-26T19:15:59.417Z,51.46
2019-03-26T19:18:03.932Z,51.50
2019-03-26T19:20:08.689Z,51.65
2019-03-26T19:22:13.006Z,51.79
2019-03-26T19:24:19.359Z,51.96
2019-03-26T19:26:23.903Z,52.12
2019-03-26T19:28:28.274Z,52.39
2019-03-26T19:30:32.685Z,52.53
2019-03-26T19:35:23.932Z,52.62
2019-03-26T19:37:28.253Z,52.82
2019-03-26T19:39:32.565Z,52.94
2019-03-26T19:41:36.902Z,53.02
2019-03-26T19:43:41.202Z,52.96
2019-03-26T19:45:47.560Z,53.05
2019-03-26T19:47:51.877Z,53.17
2019-03-26T19:49:57.230Z,53.26
2019-03-26T19:52:01.597Z,53.40
2019-03-26T19:54:06.016Z,53.44
2019-03-26T19:56:10.531Z,53.47
2019-03-26T19:58:14.898Z,53.53
2019-03-26T20:00:20.338Z,53.51
2019-03-26T20:02:24.683Z,53.58
2019-03-26T20:04:31.120Z,53.51
2019-03-26T20:06:35.515Z,53.58
2019-03-26T20:08:39.820Z,53.68
2019-03-26T20:10:44.142Z,53.73
2019-03-26T20:12:48.564Z,53.84
2019-03-26T20:14:53.934Z,53.92
2019-03-26T20:16:58.261Z,53.99
2019-03-26T20:19:04.617Z,53.97
2019-03-26T20:21:08.997Z,54.02
2019-03-26T20:23:13.473Z,54.09
2019-03-26T20:25:17.906Z,54.20
2019-03-26T20:27:22.260Z,54.36
2019-03-26T20:29:26.575Z,54.48
2019-03-26T20:31:32.933Z,54.57
2019-03-26T20:33:37.260Z,54.73
2019-03-26T20:35:41.562Z,54.73
2019-03-26T20:37:45.928Z,54.89
2019-03-26T20:39:50.304Z,55.00
2019-03-26T20:41:54.705Z,55.09
2019-03-26T20:43:59.114Z,55.15
2019-03-26T20:46:03.452Z,55.13
2019-03-26T20:48:08.783Z,55.03
2019-03-26T20:50:14.945Z,55.13
2019-03-26T20:52:19.449Z,55.20
2019-03-26T20:54:24.790Z,55.22
2019-03-26T20:56:29.778Z,55.24
2019-03-26T20:58:34.524Z,55.34
2019-03-26T21:00:41.068Z,55.37
2019-03-26T21:02:45.519Z,55.44
2019-03-26T21:04:49.856Z,55.46
2019-03-26T21:06:54.200Z,55.57
2019-03-26T21:08:58.489Z,55.54
2019-03-26T21:11:06.517Z,55.58
2019-03-26T21:13:10.898Z,55.57
2019-03-26T21:15:16.442Z,55.59
2019-03-26T21:17:20.850Z,55.63
2019-03-26T21:19:25.198Z,55.71
2019-03-26T21:21:30.540Z,55.76
2019-03-26T21:23:34.893Z,55.79
2019-03-26T21:25:39.276Z,55.77
2019-03-26T21:27:43.575Z,55.69
2019-03-26T21:29:47.894Z,55.64
2019-03-26T21:31:52.293Z,55.62
2019-03-26T21:33:56.703Z,55.62
2019-03-26T21:36:01.127Z,55.68
2019-03-26T21:38:06.586Z,55.71
2019-03-26T21:40:11.818Z,55.75
2019-03-26T21:42:17.244Z,55.73
2019-03-26T21:44:21.670Z,55.74
2019-03-26T21:46:25.986Z,55.73
2019-03-26T21:48:31.421Z,55.78
2019-03-26T21:50:35.895Z,55.73
2019-03-26T21:52:40.256Z,55.69
2019-03-26T21:54:45.702Z,55.67
2019-03-26T21:56:50.008Z,55.74
2019-03-26T21:58:54.370Z,55.82
2019-03-26T22:00:58.677Z,55.95
2019-03-26T22:03:04.097Z,56.19
2019-03-26T22:05:09.216Z,56.41
2019-03-26T22:07:13.702Z,56.61
2019-03-26T22:09:17.994Z,56.79
2019-03-26T22:11:22.368Z,57.04
2019-03-26T22:13:26.702Z,57.33
2019-03-26T22:15:31.111Z,57.61
2019-03-26T22:17:35.582Z,58.07
2019-03-26T22:19:40.153Z,58.54
2019-03-26T22:21:45.599Z,58.82
2019-03-26T22:23:49.986Z,59.07
2019-03-26T22:25:54.463Z,59.29
2019-03-26T22:27:58.836Z,59.59
2019-03-26T22:30:03.372Z,59.86
2019-03-26T22:32:07.765Z,60.01
2019-03-26T22:34:12.103Z,60.15
2019-03-26T22:36:17.438Z,60.14
2019-03-26T22:38:22.786Z,60.24
2019-03-26T22:40:27.296Z,60.55
2019-03-26T22:42:32.640Z,60.65
2019-03-26T22:44:36.956Z,60.71
2019-03-26T22:46:42.379Z,60.90
2019-03-26T22:48:47.731Z,61.09
2019-03-26T22:50:52.048Z,61.30
2019-03-26T22:52:56.424Z,61.77
2019-03-26T22:55:00.784Z,62.08
2019-03-26T22:57:05.175Z,62.43
2019-03-26T22:59:09.610Z,62.79
2019-03-26T23:01:14.097Z,62.93
2019-03-26T23:03:19.472Z,63.18
2019-03-26T23:05:23.863Z,63.52
2019-03-26T23:07:28.208Z,63.79
2019-03-26T23:09:32.509Z,63.87
2019-03-26T23:11:36.908Z,63.99
2019-03-26T23:13:41.247Z,64.18
2019-03-26T23:15:45.699Z,64.45
2019-03-26T23:17:50.164Z,64.71
2019-03-26T23:19:54.528Z,65.06
2019-03-26T23:21:58.842Z,65.27
2019-03-26T23:24:03.155Z,65.43
2019-03-26T23:26:08.583Z,65.66
2019-03-26T23:28:12.863Z,65.84
2019-03-26T23:30:17.829Z,66.03
2019-03-26T23:32:22.198Z,66.24
2019-03-26T23:34:26.620Z,66.45
2019-03-26T23:36:31.018Z,66.58
2019-03-26T23:38:35.416Z,66.69
2019-03-26T23:40:39.786Z,66.73
2019-03-26T23:42:44.296Z,66.77
2019-03-26T23:44:58.250Z,66.85
2019-03-26T23:46:54.721Z,66.92
2019-03-26T23:48:59.045Z,67.04
2019-03-26T23:51:04.567Z,67.10
2019-03-26T23:53:08.874Z,67.19
2019-03-26T23:55:13.694Z,67.31
2019-03-26T23:57:18.093Z,67.04
2019-03-26T23:59:22.400Z,66.91
